LIRZ

Details ICAO LIRZ (PEG)
Name PERUGIA
Region Italy
Timezone Europe/Rome (UTC+2.0)
Plans Departing 77
Arriving 96
Stats Elevation 693 ft / 211 m (AMSL)
Location 43.096192° 12.513325°
Runways 1
Magnetic Variation 3.153° E
Sunrise 2018-05-26 03:38:28 UTC / 2018-05-26 05:38:28 Local
Sunset 2018-05-26 18:38:23 UTC / 2018-05-26 20:38:23 Local
Advertisement - Login to hide

Runways

ID Width Length Bearing (true) Bearing (mag) Surface Threshold Offset Overrun Length
01 154 ft / 47 m 5,783 ft / 1,763 m 14.26° 11.11° Asphalt 0 ft / 0 m 328 ft / 100 m
19 154 ft / 47 m 5,783 ft / 1,763 m 194.27° 191.12° Asphalt 85 ft / 26 m 0 ft / 0 m

Approach Navaids

Runway Type Ident Frequency Range Bearing (true) Bearing (mag) Slope Elevation
01 Localiser IPE 110.95 MHz 18 nm / 33 km 14.25° 11.10° - 693 ft / 211 m (AMSL)
01 Glidescope IPE 110.95 MHz 10 nm / 19 km 14.26° 11.11° 3.40° 667 ft / 203 m (AMSL)
01 DME IPE 110.95 MHz 18 nm / 33 km - - - 667 ft / 203 m (AMSL)

Map

Weather


0- 5 10 15 20 25 30 35+ Temperature / ° C

Clouds and Precipitation
Forecast for 2018-05-26 12:00 UTC. Updated 5 hours ago

Ground ~20,000 ft ~40,000 ft Winds

METAR

LIRZ 261550Z 03010KT 9999 FEW040 29/15 Q1017

TAF

TAF TAF LIRZ 261100Z 2612/2712 02010KT 9999 SCT030 TEMPO 2612/2617 TSRA BECMG 2616/2618 VRB05KT

Frequencies

Tower 118.10 MHz INFO
Warning: Do not use this data for real-world aviation or navigation. No guarantee of current accuracy is given.